ROMYROAH

Guest
Details From ROMY - Miyako
To ROAH - NAHA
Flight Number -
Tags generated
Created
Modified
Stats Distance 153 nm / 284 km
Max Altitude 19,000 ft / 5,791 m
Waypoints 4
Social Downloads 2
Likes 0
Share VATSIM

Download

Looking for another format? Having issues loading an existing format? Contact us
Advertisement - Login to hide

Notes

Basic altitude profile: - Ascent Rate: 2500ft/min - Ascent Speed: 250kts - Cruise Altitude: 35000ft - Cruise Speed: 420kts - Descent Rate: 1500ft/min - Descent Speed: 250kts Options: - Use NATs: yes - Use PACOTS: yes - Use low airways: yes - Use high airways: yes

Route

ROMY TORII V91 RYOSA ROAH

ID Type Via Altitude (ft/m) Position (lat/lon) Dist (leg/tot) Name
O ROMY APT - 0 / 0 24.78282 / 125.29514 - / 0 nm Miyako
TORII FIX - 19,000 / 5,791 25.27966 / 126.10876 53 / 53 nm
RYOSA FIX V91 (AWY-LO) 15,800 / 4,816 25.51988 / 126.50580 25 / 79 nm
O ROAH APT - 0 / 0 26.19582 / 127.64587 73 / 153 nm NAHA

Altitude Profile

Advertisement - Login to hide

ROMY

Details ICAO ROMY (MMY)
Name Miyako
Region Japan
Timezone Asia/Tokyo (UTC+9.0)
Stats Elevation 149 ft / 45 m (AMSL)
Location 24.782800° 125.295000°
Runways 1
Magnetic Variation 4.870° W

METAR

ROMY 260900Z 06013KT 9999 SCT012 25/22 Q1011

Decode

TAF

Not found

Departure Runways

ID Width Length Bearing (true/mag) Surface Threshold Overrun Markings Lighting
04 151 ft / 46 m 6,576 ft / 2,004 m 38.16° / 43.03° ASPHALT 0 ft / 0 m 200 ft / 61 m PREC-APP CENTERLINE EDGE THRESHOLD SSALR REIL-OMNI
22 151 ft / 46 m 6,576 ft / 2,004 m 218.16° / 223.03° ASPHALT 0 ft / 0 m 190 ft / 58 m PREC-APP CENTERLINE EDGE THRESHOLD ALSF-I TDZ REIL-OMNI

ROAH

Details ICAO ROAH (OKA)
Name Naha Airport
Region Japan
Timezone Asia/Tokyo (UTC+9.0)
Stats Elevation 12 ft / 4 m (AMSL)
Location 26.195800° 127.646000°
Runways 1
Magnetic Variation 5.351° W

METAR

ROAH 260930Z 01014KT 9999 FEW017 BKN030 BKN050 24/19 Q1012 RMK 1CU017 5CU030 6SC050 A2990

Decode

TAF

TAF ROAH 260506Z 2606/2712 36014KT 9999 FEW015

Decode

Destination Runways

ID Width Length Bearing (true/mag) Surface Threshold Overrun Markings Lighting
18 148 ft / 45 m 9,852 ft / 3,003 m 177.59° / 182.94° CONCRETE 0 ft / 0 m 0 ft / 0 m PREC-APP CENTERLINE EDGE THRESHOLD SALS REIL-OMNI
36 148 ft / 45 m 9,852 ft / 3,003 m 357.59° / 2.94° CONCRETE 0 ft / 0 m 486 ft / 148 m PREC-APP CENTERLINE EDGE THRESHOLD ALSF-I TDZ REIL-OMNI

Approach Navaids

Runway Type Ident Frequency Range Bearing (true/mag) Slope Elevation
36 LOC-ILS IOK 110.30 MHz 18 nm / 33 km 357.59° / 2.94 ° - 12 ft / 4 m (AMSL)
36 DME IOK 110.30 MHz 18 nm / 33 km - - 31 ft / 9 m (AMSL)
36 MM MM - - 357.59° / 2.94 ° - 12 ft / 4 m (AMSL)
36 GS IOK 110.30 MHz 10 nm / 19 km 357.59° / 2.94 ° 3.00° 12 ft / 4 m (AMSL)

Popular Alternatives